Weather observations for the past three days for
Jacksonville, Cherokee County Airport
Imperial (Metric)
Date Time (cdt) Wind (mph) Vis. (mi.) Weather Sky Cond. Temperature (ºF) Relative Humidity Wind Chill (°F) Heat Index (°F) Pressure Precipitation (in)
Air Dwpt 6 hour altimeter (in) sea level (mb) 1 hr 3 hr 6 hr
Max. Min.
04 13:55 S 9 8.00 A Few Clouds FEW300 77.4 53.1 43% 79 29.89 0.0
04 13:35 SW 10 G 20 8.00 A Few Clouds FEW360 76.5 52.2 43% 78 29.91 0.0
04 13:15 S 13 G 18 8.00 Partly Cloudy FEW280 SCT380 76.6 53.6 45% 78 29.91 0.0
04 12:55 S 7 G 17 9.00 A Few Clouds FEW280 75.6 53.2 75.6 56.8 46% 78 29.92 0.0
04 12:35 S 13 G 21 8.00 A Few Clouds FEW380 74.8 52.5 46% 29.93 0.0
04 12:15 S 12 G 17 8.00 A Few Clouds FEW370 74.7 54 49% 29.93 0.0
04 11:55 S 12 9.00 A Few Clouds FEW320 72.7 53.2 51% 29.95 0.0
04 11:35 S 9 G 17 9.00 Fair CLR 72.7 53.4 51% 29.95 0.0
04 11:15 S 15 G 21 10.00 A Few Clouds FEW380 72 52.3 50% 29.96 0.0
04 10:55 S 10 G 21 9.00 Fair CLR 70.7 53.8 55% 29.96 0.0
04 10:35 S 15 G 22 9.00 Fair CLR 70.2 53.6 56% 29.97 0.0
04 10:15 S 10 G 18 9.00 Fair CLR 69.1 55.8 63% 29.97 0.0
04 09:55 S 10 9.00 Fair CLR 66.7 56.3 69% 29.97 0.0
04 09:35 S 12 G 17 10.00 Fair CLR 65.1 55.8 72% 29.97 0.0
04 09:15 S 10 9.00 Fair CLR 64 55.6 74% 29.97 0.0
04 08:55 S 9 10.00 Fair CLR 61.7 54.3 77% 29.97 0.0
04 08:35 S 12 G 17 10.00 Fair CLR 60.8 53.8 78% 29.97 0.0
04 08:15 S 8 10.00 Fair CLR 59.4 53.4 81% 29.97 0.0
04 07:55 S 7 10.00 Fair CLR 58.3 53.2 83% 29.96 0.0
04 07:35 S 7 10.00 Fair CLR 58.3 53.1 83% 29.96 0.0
04 07:15 S 8 10.00 Fair CLR 57.4 52.7 84% 29.96 0.0
04 06:55 S 8 10.00 Fair CLR 56.7 52.5 60.8 55.8 86% 29.96 0.0
04 06:35 S 7 10.00 Fair CLR 55.9 52.3 88% 29.95 0.0
04 06:15 S 8 10.00 Fair CLR 55.8 52.5 89% 29.95 0.0
04 05:55 S 7 10.00 Fair CLR 56.5 52.5 87% 29.95 0.0
04 05:35 S 8 10.00 Fair CLR 56.7 52.5 86% 29.95 0.0
04 05:15 S 7 10.00 Fair CLR 55.8 52.7 90% 29.96 0.0
04 04:55 S 7 10.00 Fair CLR 56.8 52.7 86% 29.97 0.0
04 04:35 S 8 10.00 Fair CLR 57.2 52.9 86% 29.96 0.0
04 04:15 S 7 10.00 Fair CLR 57 52.9 86% 29.97 0.0
04 03:55 S 7 10.00 Fair CLR 57.7 52.9 84% 29.97 0.0
04 03:35 S 7 10.00 Fair CLR 58.1 52.5 82% 29.97 0.0
04 03:15 S 7 10.00 Fair CLR 59 52.5 79% 29.97 0.0
04 02:55 S 6 10.00 Fair CLR 58.6 52.7 81% 29.97 0.0
04 02:35 S 7 10.00 Fair CLR 59 52.5 79% 29.98 0.0
04 02:15 S 7 10.00 Fair CLR 59.5 52.7 78% 29.99 0.0
04 01:55 S 6 10.00 Fair CLR 60.4 52.7 76% 30 0.0
04 01:35 S 6 10.00 Fair CLR 60.4 52.9 76% 30.01 0.0
04 01:15 S 7 10.00 Fair CLR 60.8 52.9 75% 30.01 0.0
04 00:55 S 7 10.00 Fair CLR 61.3 53.2 74.7 61.3 75% 30.02 0.0
04 00:35 S 7 10.00 Fair CLR 61.7 53.6 75% 30.02 0.0
04 00:15 S 6 10.00 Fair CLR 63.1 53.1 70% 30.02 0.0
03 23:55 S 5 10.00 Fair CLR 64.2 53.1 67% 30.02 0.0
03 23:35 S 5 10.00 Fair CLR 63.9 53.1 68% 30.02 0.0
03 23:15 S 3 10.00 Fair CLR 64.8 52.7 65% 30.02 0.0
03 22:55 S 6 10.00 Fair CLR 65.1 52.7 64% 30.02 0.0
03 22:35 S 5 10.00 Fair CLR 65.8 51.4 60% 30.02 0.0
03 22:15 S 3 10.00 Fair CLR 63.3 52.7 68% 30.02 0.0
03 21:55 SW 3 10.00 Fair CLR 69.1 49.5 50% 30.02 0.0
03 21:35 SW 3 10.00 Fair CLR 68.7 49.3 50% 30.02 0.0
03 21:15 SW 3 10.00 Fair CLR 69.3 49.5 49% 30.02 0.0
03 20:55 Calm 10.00 Fair CLR 68.7 51.3 54% 30.01 0.0
03 20:35 Calm 10.00 Fair CLR 69.1 51.4 54% 30.01 0.0
03 20:15 S 3 9.00 Fair CLR 69.3 52.2 55% 30.01 0.0
03 19:55 Calm 8.00 Fair CLR 71.4 51.1 49% 30 0.0
03 19:35 S 3 9.00 Fair CLR 72.7 50.9 46% 30.01 0.0
03 19:15 SW 5 6.00 Fair with Haze CLR 73.8 50.7 44% 30.01 0.0
03 18:55 S 6 8.00 A Few Clouds FEW070 75 50.9 78.6 74.8 43% 78 30.01 0.0
03 18:35 S 7 8.00 Partly Cloudy SCT070 75.6 50.9 42% 78 30.01 0.0
03 18:15 S 7 8.00 A Few Clouds FEW070 76.6 49.3 38% 78 30.02 0.0
03 17:55 S 8 7.00 Partly Cloudy SCT070 76.8 49.1 38% 78 30.02 0.0
03 17:35 SE 7 8.00 Mostly Cloudy BKN070 77 49.3 38% 78 30.02 0.0
03 17:15 S 7 8.00 Fair CLR 77.7 48.2 35% 78 30.03 0.0
03 16:55 S 6 7.00 A Few Clouds FEW070 78.3 47.8 34% 79 30.03 0.0
03 16:35 Vrbl 5 7.00 A Few Clouds FEW070 77.7 48.4 36% 78 30.04 0.0
03 16:15 SW 3 7.00 Mostly Cloudy BKN070 77.9 47.7 35% 78 30.05 0.0
03 15:55 SW 8 8.00 Partly Cloudy SCT070 78.3 48.2 35% 79 30.06 0.0
03 15:35 SW 6 7.00 Partly Cloudy SCT070 77.5 48.6 36% 78 30.07 0.0
03 15:15 W 6 8.00 Partly Cloudy SCT070 77.4 46.4 34% 78 30.08 0.0
03 14:55 Vrbl 3 7.00 A Few Clouds FEW070 77 46.6 34% 78 30.09 0.0
03 14:35 SW 8 7.00 Partly Cloudy SCT070 75 47.3 38% 77 30.1 0.0
03 13:55 W 9 8.00 A Few Clouds FEW340 77 48.7 37% 78 30.12 0.0
03 13:35 W 9 8.00 A Few Clouds FEW300 76.5 47.8 36% 78 30.13 0.0
03 13:15 W 6 8.00 A Few Clouds FEW330 76.1 48.6 38% 78 30.14 0.0
03 12:55 W 9 8.00 Fair CLR 75.4 47.7 75.7 57.7 38% 78 30.15 0.0
03 12:35 Vrbl 7 7.00 A Few Clouds FEW320 75.2 47.5 38% 77 30.16 0.0
03 12:15 W 9 8.00 A Few Clouds FEW320 75 47.7 38% 77 30.16 0.0
03 11:55 W 8 8.00 Fair CLR 73.9 48.4 41% 30.17 0.0
03 11:35 SW 9 8.00 Fair CLR 73.6 48.9 42% 30.17 0.0
03 11:15 W 9 8.00 Fair CLR 72.9 50.7 46% 30.17 0.0
03 10:55 SW 10 8.00 Fair CLR 71.8 50.9 48% 30.17 0.0
03 10:35 Vrbl 7 8.00 Fair CLR 71.2 50.9 49% 30.18 0.0
03 10:15 Vrbl 6 8.00 Fair CLR 70.5 52.9 54% 30.17 0.0
03 09:55 SW 9 8.00 Fair CLR 68.7 52.5 56% 30.17 0.0
03 09:35 SW 7 8.00 Fair CLR 67.5 52.7 59% 30.17 0.0
03 09:15 S 7 9.00 Fair CLR 65.7 53.8 66% 30.17 0.0
03 08:55 SW 7 9.00 A Few Clouds FEW080 63.9 52.5 67% 30.17 0.0
03 08:35 SW 3 9.00 Fair CLR 63.1 52.2 68% 30.17 0.0
03 08:15 SW 5 9.00 A Few Clouds FEW075 61.2 52.2 72% 30.16 0.0
03 07:55 S 5 8.00 Mostly Cloudy BKN075 59.2 51.6 76% 30.15 0.0
03 07:35 S 3 9.00 Mostly Cloudy BKN075 59.4 50.7 73% 30.15 0.0
03 07:15 S 5 9.00 Partly Cloudy SCT075 57.9 50.4 76% 30.15 0.0
03 06:55 S 5 9.00 Fair CLR 57.2 49.8 61.7 56.8 77% 30.14 0.0
03 06:35 SW 5 10.00 Fair CLR 57 50 78% 30.13 0.0
03 06:15 S 3 10.00 Fair CLR 57.9 49.5 74% 30.12 0.0
03 05:55 SW 5 10.00 Fair CLR 58.8 48.9 70% 30.12 0.0
03 05:35 SW 5 10.00 Fair CLR 58.8 48.4 68% 30.11 0.0
03 05:15 SW 5 10.00 Fair CLR 58.5 48.9 71% 30.11 0.0
03 04:55 SW 3 10.00 Fair CLR 58.5 48.9 71% 30.11 0.0
03 04:35 S 5 10.00 Fair CLR 58.3 48.9 71% 30.11 0.0
03 04:15 SW 3 10.00 Fair CLR 58.5 48.7 70% 30.11 0.0
03 03:55 S 5 10.00 Fair CLR 58.8 48.7 69% 30.11 0.0
03 03:35 S 5 10.00 Fair CLR 58.5 48.7 70% 30.1 0.0
03 03:15 S 5 10.00 Fair CLR 58.5 48.7 70% 30.11 0.0
03 02:55 SW 5 10.00 Fair CLR 59.7 48.6 67% 30.11 0.0
03 02:35 SW 6 10.00 Fair CLR 59.7 48.7 67% 30.11 0.0
03 02:15 S 6 10.00 Fair CLR 60.1 48 65% 30.11 0.0
03 01:55 S 5 10.00 Fair CLR 59.9 47.5 64% 30.12 0.0
03 01:35 S 5 10.00 Fair CLR 60.4 46.6 60% 30.12 0.0
03 01:15 SW 6 10.00 Fair CLR 61.7 45.7 56% 30.12 0.0
03 00:55 S 3 10.00 Fair CLR 61.2 45.5 70.7 59 57% 30.12 0.0
03 00:35 S 3 10.00 Fair CLR 60.6 46 59% 30.11 0.0
03 00:15 S 3 10.00 Fair CLR 60.6 47.1 61% 30.11 0.0
02 23:55 Calm 10.00 Fair CLR 60.1 45.1 58% 30.11 0.0
02 23:35 Calm 10.00 Fair CLR 59.7 45.7 60% 30.11 0.0
02 23:15 Calm 10.00 Fair CLR 62.1 45.5 55% 30.11 0.0
02 22:55 Calm 10.00 Fair CLR 60.3 47.1 62% 30.12 0.0
02 22:35 Calm 10.00 Fair CLR 59.9 48 65% 30.11 0.0
02 22:15 Calm 10.00 Fair CLR 62.6 47.5 58% 30.11 0.0
02 21:55 Calm 10.00 Fair CLR 61.3 49.1 64% 30.1 0.0
02 21:35 Calm 9.00 Fair CLR 61.3 49.1 64% 30.1 0.0
02 21:15 Calm 10.00 Fair CLR 62.2 49.6 64% 30.09 0.0
02 20:55 Calm 9.00 Fair CLR 64.2 49.8 60% 30.09 0.0
02 20:35 Calm 10.00 Fair CLR 64.8 50 59% 30.08 0.0
02 20:15 Calm 8.00 Fair CLR 64.9 51.1 61% 30.08 0.0
02 19:55 Calm 7.00 Fair CLR 67.1 50.5 55% 30.06 0.0
02 19:35 Calm 8.00 Fair CLR 69.3 47.1 45% 30.06 0.0
02 19:15 NE 3 6.00 Fair with Haze CLR 70.2 49.3 48% 30.06 0.0
02 18:55 Calm 8.00 Fair CLR 71.1 46.9 74.3 68.2 42% 30.06 0.0
02 18:35 NE 6 8.00 Fair CLR 71.6 46.4 41% 30.06 0.0
02 18:15 NE 5 8.00 Fair CLR 72 45.3 39% 30.06 0.0
02 17:55 N 6 8.00 Fair CLR 72.7 45.5 38% 30.06 0.0
02 17:35 NE 6 8.00 A Few Clouds FEW070 73 46 38% 30.06 0.0
02 17:15 NE 9 8.00 A Few Clouds FEW070 73 45.3 37% 30.06 0.0
02 16:55 N 7 8.00 Fair CLR 72.7 44.2 36% 30.06 0.0
02 16:35 Vrbl 3 8.00 A Few Clouds FEW070 73 45.5 37% 30.06 0.0
02 16:15 N 8 8.00 Partly Cloudy SCT070 73.9 46.9 38% 30.07 0.0
02 15:55 Vrbl 7 8.00 Partly Cloudy SCT070 72.9 46 38% 30.07 0.0
02 15:35 NE 9 8.00 Mostly Cloudy BKN070 72.9 47.5 41% 30.08 0.0
02 15:15 Vrbl 6 7.00 Partly Cloudy FEW060 SCT080 SCT350 73.6 46.9 39% 30.09 0.0
02 14:55 N 8 8.00 A Few Clouds FEW060 72.3 47.1 41% 30.09 0.0
02 14:35 Vrbl 6 8.00 Partly Cloudy SCT060 72.5 49.5 44% 30.09 0.0
02 14:15 N 6 8.00 Mostly Cloudy BKN060 71.2 49.6 47% 30.1 0.0
02 13:55 N 8 8.00 Fair CLR 71.1 50 47% 30.11 0.0
02 13:35 N 6 8.00 A Few Clouds FEW270 71.1 50.4 48% 30.11 0.0
02 13:15 Vrbl 3 8.00 Partly Cloudy SCT046 70.2 51.1 51% 30.12 0.0
02 12:55 NW 6 8.00 Partly Cloudy FEW044 SCT055 SCT310 68.2 51.6 70 52.7 56% 30.14 0.0
02 12:35 Vrbl 6 8.00 A Few Clouds FEW043 69.1 52.5 56% 30.14 0.0
02 12:15 N 7 8.00 Partly Cloudy FEW042 SCT380 68.7 53.6 59% 30.14 0.0
02 11:55 Vrbl 3 8.00 Fair CLR 66.9 54.1 64% 30.14 0.0
02 11:35 Vrbl 3 8.00 Fair CLR 67.1 54.1 63% 30.14 0.0
02 11:15 Vrbl 3 8.00 Fair CLR 66.4 54.3 65% 30.14 0.0
02 10:55 NW 5 8.00 Fair CLR 65.3 53.4 66% 30.14 0.0
02 10:35 Vrbl 5 8.00 Fair CLR 65.1 53.6 66% 30.14 0.0
02 10:15 Calm 8.00 Fair CLR 63.5 53.2 69% 30.13 0.0
02 09:55 Vrbl 3 9.00 Fair CLR 62.8 54.9 75% 30.13 0.0
02 09:35 Vrbl 5 8.00 Fair CLR 62.1 55.2 78% 30.13 0.0
02 09:15 N 5 9.00 Fair CLR 61 55.4 82% 30.12 0.0
02 08:55 Vrbl 5 9.00 Fair CLR 59.2 55 86% 30.12 0.0
02 08:35 NW 5 10.00 Fair CLR 57.9 54.3 88% 30.11 0.0
02 08:15 NW 3 9.00 Fair CLR 56.5 53.6 90% 30.1 0.0
02 07:55 NW 5 10.00 Fair CLR 55.6 52.3 89% 30.1 0.0
02 07:35 NW 3 8.00 Fair CLR 54.7 52.3 92% 30.09 0.0
02 07:15 NW 5 10.00 Fair CLR 53.4 51.6 94% 30.09 0.0
02 06:55 NW 5 10.00 Fair CLR 52.3 50.7 53.2 52 94% 30.07 0.0
02 06:35 Vrbl 3 10.00 Fair CLR 52.2 50.7 95% 30.06 0.0
02 06:15 NW 3 10.00 Fair CLR 52.2 51.1 96% 30.06 0.0
02 05:55 NW 5 10.00 Fair CLR 52.2 50.9 96% 30.05 0.0
02 05:35 NW 3 10.00 Fair CLR 52.2 51.1 96% 30.04 0.0
02 05:15 NW 3 10.00 Fair CLR 52.2 51.6 98% 30.04 0.0
02 04:55 NW 3 10.00 Fair CLR 52.3 52.2 99% 30.03 0.0
02 04:35 NW 3 10.00 Fair CLR 52.5 52.2 99% 30.03 0.0
02 04:15 N 3 10.00 Fair CLR 52.7 52.7 100% 30.03 0.0
02 03:55 NW 5 10.00 Partly Cloudy SCT110 52.9 52.9 100% 30.03 0.0
02 03:35 N 3 10.00 Mostly Cloudy BKN110 53.1 53.1 100% 30.02 0.0
02 03:15 Calm 10.00 Overcast OVC110 53.1 53.1 100% 30.03 0.0
02 02:55 N 3 10.00 Overcast OVC110 53.1 53.1 100% 30.02 0.0
02 02:35 N 3 10.00 Overcast OVC110 53.1 53.1 100% 30.02 0.0
02 02:15 NW 3 10.00 Overcast OVC110 53.1 53.1 100% 30.03 0.0
02 01:55 N 3 10.00 Overcast OVC110 53.1 53.1 100% 30.03 0.0
02 01:35 NW 3 10.00 Overcast OVC095 53.1 53.1 100% 30.03 0.0
02 01:15 NW 3 10.00 Overcast OVC100 53.1 53.1 100% 30.03 0.0
02 00:55 NW 5 10.00 Overcast BKN090 OVC110 53.1 53.1 54 52.9 100% 30.03 0.0 0.05
02 00:35 N 3 10.00 Overcast OVC085 53.2 53.2 100% 30.02 0.0
02 00:15 N 5 10.00 Overcast OVC080 53.2 53.2 100% 30.02 0.0
01 23:55 N 3 10.00 Overcast OVC090 53.1 53.1 100% 30.02 0.0
01 23:35 N 6 10.00 Overcast BKN090 OVC130 53.4 53.2 99% 30.02 0.0
01 23:15 NE 6 10.00 Overcast BKN075 OVC085 53.8 52.9 97% 30.02 0.0
01 22:55 NE 6 10.00 Overcast OVC080 54 53.1 97% 30.01 0.0
01 22:35 E 7 10.00 Overcast OVC080 53.8 53.6 99% 30 0.0
01 22:15 NE 6 10.00 Overcast SCT090 OVC100 53.8 53.8 100% 30.01 0.0
01 21:55 NE 8 10.00 Overcast OVC100 53.6 53.6 100% 30 0.0 0.02 0.05
01 21:35 NE 6 10.00 Mostly Cloudy FEW065 BKN110 53.6 53.6 100% 30.01 0.0 0.01
01 21:15 NE 7 6.00 Fog/Mist BKN060 53.8 53.8 100% 30.01 0.0 0.01
01 20:55 Vrbl 3 7.00 Unknown Precip OVC060 53.6 53.6 100% 30.01 0.0 0.02
01 20:35 NE 5 7.00 Unknown Precip BKN060 BKN090 53.6 53.6 100% 29.99 0.0 0.01
01 20:15 N 3 7.00 Partly Cloudy SCT055 53.4 53.4 100% 29.99 0.0
01 19:55 Calm 5.00 Unknown Precip Fog/Mist OVC050 53.4 53.4 100% 29.99 0.0 0.01
01 19:35 Calm 9.00 Overcast OVC050 53.2 53.2 100% 29.98 0.0
01 19:15 N 6 8.00 Mostly Cloudy SCT055 BKN090 52.9 52.9 100% 29.96 0.0
01 18:55 NE 8 10.00 Overcast SCT044 BKN055 OVC085 52.7 52.7 53.4 51.8 100% 29.93 0.0 0.25
01 18:35 NE 7 8.00 Overcast BKN045 OVC085 52.9 52.9 100% 29.96 0.0
01 18:15 NE 7 10.00 Overcast BKN042 OVC050 53.1 53.1 100% 29.95 0.0
01 17:55 E 8 6.00 Unknown Precip Fog/Mist OVC041 53.1 52.9 99% 29.95 0.0 0.02
01 17:35 NE 8 G 17 7.00 Unknown Precip BKN041 BKN060 OVC090 53.1 52.5 98% 29.93 0.0 0.01
01 17:15 NE 12 7.00 Unknown Precip FEW035 SCT085 52.9 52.9 100% 29.92 0.0 0.01
01 16:55 NE 9 8.00 Unknown Precip BKN005 BKN028 OVC110 52.9 52.9 100% 29.92 0.0 0.03
01 16:35 NE 9 G 17 10.00 Overcast OVC003 53.1 53.1 100% 29.9 0.0 0.03
01 16:15 NE 13 6.00 Light Rain Fog/Mist BKN003 BKN012 BKN019 OVC032 53.2 53.2 100% 29.89 0.0 0.03
01 15:55 NE 10 3.00 Rain Fog/Mist BKN012 OVC017 52.9 52.9 100% 29.94 0.0 0.15 0.2
01 15:35 NE 8 2.50 Rain Fog/Mist BKN010 OVC017 53.1 53.1 100% 29.96 0.0 0.11
01 15:15 NE 6 3.00 Light Rain Fog/Mist SCT011 BKN018 OVC034 53.2 53.2 100% 29.95 0.0 0.04
01 14:55 NE 13 8.00 Unknown Precip BKN009 OVC015 53.1 53.1 100% 29.91 0.0 0.01
01 14:35 NE 14 8.00 Unknown Precip BKN006 OVC010 52.7 52.7 100% 29.87 0.0
01 14:15 NE 13 G 23 9.00 Overcast BKN006 OVC012 52.9 52.9 100% 29.88 0.0
Date Time (cdt) Wind (mph) Vis. (mi.) Weather Sky Cond. Air Dwpt Max. Min. Relative Humidity Wind Chill (°F) Heat Index (°F) altimeter (in) sea level (mb) 1 hr 3 hr 6 hr
6 hour
Temperature (ºF) Pressure Precipitation (in)